Time;durP1;ratioP1;P1;durP2;ratioP2;P2;SDS_P1;SDS_P2;PMS_P1;PMS_P2;Temp;Humidity;BMP_temperature;BMP_pressure;BME280_temperature;BME280_humidity;BME280_pressure;Samples;Min_cycle;Max_cycle;Signal;HPM_P1;HPM_P2
2021/12/03 00:01:40;;;;;;;7.22;6.53;;;;;;;3.36;78.50;95924.78;5037737;28;20053;-81
2021/12/03 00:04:09;;;;;;;7.75;5.78;;;;;;;3.30;77.26;95919.28;5038232;28;20136;-80
2021/12/03 00:06:38;;;;;;;7.72;6.68;;;;;;;3.27;77.77;95942.78;5037529;28;20046;-81
2021/12/03 00:09:08;;;;;;;10.55;6.95;;;;;;;3.27;77.94;95942.78;5037351;28;20099;-80
2021/12/03 00:11:38;;;;;;;7.22;5.82;;;;;;;3.27;77.63;95944.56;5037453;28;20521;-81
2021/12/03 00:14:07;;;;;;;7.60;6.80;;;;;;;3.29;78.17;95947.78;5037597;28;20488;-81
2021/12/03 00:16:36;;;;;;;7.80;6.45;;;;;;;3.30;78.13;95957.13;5037655;28;20525;-80
2021/12/03 00:19:05;;;;;;;6.97;5.70;;;;;;;3.30;78.23;95957.13;5037691;28;20466;-81
2021/12/03 00:21:37;;;;;;;7.75;5.30;;;;;;;3.31;78.12;95958.75;5038057;28;20435;-81
2021/12/03 00:24:07;;;;;;;4.95;3.60;;;;;;;3.28;77.97;95971.97;5037584;28;20118;-81
2021/12/03 00:26:35;;;;;;;3.88;3.35;;;;;;;3.22;77.78;95965.63;5037378;28;20073;-81
2021/12/03 00:29:06;;;;;;;5.03;4.53;;;;;;;3.22;78.57;95975.94;5036036;28;20080;-81
2021/12/03 00:31:34;;;;;;;4.80;3.90;;;;;;;3.22;78.38;95983.66;5036308;28;20100;-81
2021/12/03 00:34:04;;;;;;;5.00;4.25;;;;;;;3.20;78.50;95989.94;5035984;28;20067;-81
2021/12/03 00:36:32;;;;;;;5.22;4.72;;;;;;;3.19;78.35;96009.75;5036182;28;20128;-81
2021/12/03 00:39:01;;;;;;;5.40;4.43;;;;;;;3.20;78.42;96002.81;5035744;28;20506;-80
2021/12/03 00:41:34;;;;;;;5.80;4.75;;;;;;;3.19;78.11;96008.94;5036154;28;20072;-81
2021/12/03 00:44:02;;;;;;;4.95;4.25;;;;;;;3.17;77.96;96021.97;5035867;28;20136;-81
2021/12/03 00:46:33;;;;;;;5.93;5.22;;;;;;;3.18;78.25;96038.25;5036261;28;20054;-80
2021/12/03 00:49:01;;;;;;;5.43;4.72;;;;;;;3.18;78.63;96040.81;5036198;28;20049;-80
2021/12/03 00:51:30;;;;;;;5.95;5.32;;;;;;;3.18;78.31;96044.22;5036853;28;20045;-80
2021/12/03 00:53:59;;;;;;;6.75;5.82;;;;;;;3.18;78.54;96051.94;5035815;28;20132;-81
2021/12/03 00:56:27;;;;;;;6.95;5.32;;;;;;;3.19;78.65;96045.00;5036213;28;20132;-81
2021/12/03 00:58:56;;;;;;;6.03;5.43;;;;;;;3.17;78.17;96045.19;5036258;28;20578;-81
2021/12/03 01:01:25;;;;;;;5.65;5.03;;;;;;;3.17;78.38;96042.59;5036837;28;20057;-81
2021/12/03 01:03:55;;;;;;;6.50;5.80;;;;;;;3.18;78.25;96054.50;5036211;28;20107;-81
2021/12/03 01:06:25;;;;;;;6.25;4.88;;;;;;;3.17;77.24;96063.22;5035946;28;20057;-80
2021/12/03 01:08:54;;;;;;;7.97;6.47;;;;;;;3.18;77.70;96064.03;5037540;28;20046;-81
2021/12/03 01:11:23;;;;;;;8.18;6.63;;;;;;;3.17;77.77;96065.78;5054324;28;20054;-81
2021/12/03 01:13:51;;;;;;;7.72;5.88;;;;;;;3.15;77.40;96072.88;5053849;28;20049;-79
2021/12/03 01:16:18;;;;;;;6.63;5.72;;;;;;;3.16;77.51;96082.19;5043804;28;20053;-78
2021/12/03 01:18:46;;;;;;;5.95;4.90;;;;;;;3.11;76.77;96084.41;5035264;28;20045;-78
2021/12/03 01:21:15;;;;;;;6.90;5.38;;;;;;;3.07;77.10;96081.31;5034675;28;20491;-79
2021/12/03 01:23:43;;;;;;;6.70;5.57;;;;;;;3.07;77.82;96083.09;5034915;28;20488;-78
2021/12/03 01:26:11;;;;;;;6.65;5.18;;;;;;;3.05;77.01;96078.06;5034757;28;20052;-78
2021/12/03 01:28:38;;;;;;;5.72;5.13;;;;;;;3.03;77.17;96087.72;5034353;28;20088;-78
2021/12/03 01:31:06;;;;;;;5.90;4.28;;;;;;;3.00;76.88;96087.22;5034585;28;20049;-78
2021/12/03 01:33:34;;;;;;;6.10;4.90;;;;;;;2.98;76.78;96091.72;5034430;28;20050;-78
2021/12/03 01:36:02;;;;;;;5.55;4.78;;;;;;;2.97;77.11;96090.06;5034943;28;20050;-79
2021/12/03 01:38:31;;;;;;;6.22;4.97;;;;;;;2.96;76.65;96091.06;5034530;28;20053;-79
2021/12/03 01:40:59;;;;;;;5.80;5.20;;;;;;;2.95;76.88;96095.41;5047450;28;20067;-78
2021/12/03 01:43:27;;;;;;;6.45;5.30;;;;;;;2.98;77.17;96094.28;5052934;28;20041;-78
2021/12/03 01:45:57;;;;;;;8.85;5.38;;;;;;;2.98;76.12;96094.28;5046634;28;20041;-78
2021/12/03 01:48:25;;;;;;;6.05;4.82;;;;;;;2.97;76.41;96093.47;5035369;28;20045;-78
2021/12/03 01:50:53;;;;;;;6.18;5.13;;;;;;;2.96;76.42;96098.78;5035013;28;20056;-79
2021/12/03 01:53:25;;;;;;;6.80;5.32;;;;;;;2.93;76.53;96099.06;5043973;28;20049;-78
2021/12/03 01:56:01;;;;;;;5.05;3.30;;;;;;;2.91;75.90;96098.38;5054202;28;20045;-79
2021/12/03 01:58:28;;;;;;;7.97;4.78;;;;;;;2.86;76.18;96102.25;5039205;28;20046;-78
2021/12/03 02:00:58;;;;;;;5.80;4.40;;;;;;;2.84;75.92;96099.00;5034642;28;20057;-78
2021/12/03 02:03:31;;;;;;;6.90;5.53;;;;;;;2.82;76.05;96095.75;5034331;28;20124;-78
2021/12/03 02:05:59;;;;;;;7.43;5.88;;;;;;;2.83;76.02;96102.50;5034024;28;20426;-79
2021/12/03 02:08:28;;;;;;;8.55;5.30;;;;;;;2.82;76.36;96100.91;5033667;28;20071;-78
2021/12/03 02:10:58;;;;;;;5.50;4.95;;;;;;;2.80;76.21;96095.09;5033560;28;20053;-78
2021/12/03 02:13:26;;;;;;;5.05;4.55;;;;;;;2.79;76.50;96111.47;5034072;28;20057;-78
2021/12/03 02:15:54;;;;;;;6.15;4.45;;;;;;;2.76;75.04;96106.63;5033822;28;20045;-78
2021/12/03 02:18:22;;;;;;;4.90;4.15;;;;;;;2.72;75.58;96107.88;5033719;28;20080;-78
2021/12/03 02:20:53;;;;;;;7.47;5.10;;;;;;;2.72;75.61;96115.59;5033388;28;20061;-78
2021/12/03 02:23:22;;;;;;;5.85;5.15;;;;;;;2.74;76.21;96113.69;5033478;28;20048;-78
2021/12/03 02:25:51;;;;;;;6.10;5.50;;;;;;;2.78;76.55;96120.19;5033411;28;20132;-78
2021/12/03 02:28:22;;;;;;;6.15;4.75;;;;;;;2.78;75.82;96120.19;5033627;28;20041;-78
2021/12/03 02:30:52;;;;;;;6.80;5.13;;;;;;;2.80;76.02;96118.28;5035251;28;20053;-78
2021/12/03 02:33:20;;;;;;;6.05;5.15;;;;;;;2.81;76.43;96119.88;5057096;28;20049;-78
2021/12/03 02:35:49;;;;;;;6.65;5.30;;;;;;;2.82;75.88;96118.94;5057130;28;20265;-78
2021/12/03 02:38:22;;;;;;;5.68;4.70;;;;;;;2.83;75.82;96122.31;5038593;28;20466;-78
2021/12/03 02:40:51;;;;;;;5.43;4.53;;;;;;;2.82;75.55;96126.66;5034348;28;20103;-78
2021/12/03 02:43:19;;;;;;;5.22;4.38;;;;;;;2.79;75.34;96121.78;5037592;28;20033;-78
2021/12/03 02:45:47;;;;;;;5.00;4.00;;;;;;;2.77;75.09;96123.69;5057036;28;20048;-78
2021/12/03 02:48:15;;;;;;;6.72;5.32;;;;;;;2.74;75.74;96134.28;5045327;28;20054;-79
2021/12/03 02:50:42;;;;;;;4.53;4.05;;;;;;;2.74;75.19;96134.28;5033382;28;20557;-79
2021/12/03 02:53:10;;;;;;;4.97;4.25;;;;;;;2.72;74.91;96141.34;5033186;28;20103;-78
2021/12/03 02:55:39;;;;;;;4.82;3.67;;;;;;;2.67;74.47;96138.41;5033141;28;20064;-78
2021/12/03 02:58:08;;;;;;;4.75;4.20;;;;;;;2.64;74.89;96143.81;5034006;28;20052;-78
2021/12/03 03:00:35;;;;;;;4.72;4.20;;;;;;;2.64;75.39;96151.56;5033120;28;20064;-79
2021/12/03 03:03:03;;;;;;;4.97;4.10;;;;;;;2.61;74.07;96151.84;5033144;28;20045;-78
2021/12/03 03:05:32;;;;;;;5.50;4.63;;;;;;;2.61;74.95;96154.44;5033149;28;20108;-78
2021/12/03 03:07:59;;;;;;;6.07;4.75;;;;;;;2.62;75.44;96156.88;5032947;28;20046;-79
2021/12/03 03:10:31;;;;;;;7.72;5.32;;;;;;;2.64;76.28;96154.13;5033341;28;20046;-78
2021/12/03 03:13:01;;;;;;;5.13;4.63;;;;;;;2.65;76.36;96156.56;5033318;28;20054;-78
2021/12/03 03:15:28;;;;;;;7.97;6.07;;;;;;;2.67;76.02;96153.84;5033477;28;20037;-78
2021/12/03 03:17:57;;;;;;;8.48;6.57;;;;;;;2.69;76.19;96159.69;5035569;28;20056;-79
2021/12/03 03:20:24;;;;;;;7.57;6.63;;;;;;;2.71;76.04;96155.16;5037262;28;20053;-79
2021/12/03 03:22:52;;;;;;;8.85;7.40;;;;;;;2.70;76.15;96158.72;5036517;28;20404;-79
2021/12/03 03:25:20;;;;;;;8.23;6.72;;;;;;;2.70;75.64;96155.34;5036526;28;20446;-79
2021/12/03 03:27:48;;;;;;;8.90;6.75;;;;;;;2.70;75.98;96158.72;5036799;28;20060;-78
2021/12/03 03:30:19;;;;;;;8.63;7.03;;;;;;;2.74;76.72;96167.78;5036438;28;20046;-79
2021/12/03 03:32:49;;;;;;;8.32;7.00;;;;;;;2.75;76.33;96164.22;5037359;28;20055;-79
2021/12/03 03:35:16;;;;;;;9.77;7.18;;;;;;;2.76;76.40;96175.38;5037180;28;20061;-79
2021/12/03 03:37:44;;;;;;;9.50;6.85;;;;;;;2.75;76.46;96173.72;5036994;28;20067;-79
2021/12/03 03:40:16;;;;;;;9.15;7.40;;;;;;;2.78;77.20;96176.84;5036727;28;20052;-79
2021/12/03 03:42:43;;;;;;;9.27;7.50;;;;;;;2.81;77.43;96171.38;5037262;28;20515;-78
2021/12/03 03:45:14;;;;;;;9.48;7.93;;;;;;;2.86;77.64;96178.69;5041822;28;20053;-78
2021/12/03 03:47:43;;;;;;;10.32;7.70;;;;;;;2.88;77.08;96182.72;5059309;28;20041;-79
2021/12/03 03:50:12;;;;;;;8.13;6.90;;;;;;;2.88;77.27;96187.88;5060315;22;20418;-76
2021/12/03 03:52:40;;;;;;;9.88;7.57;;;;;;;2.88;76.99;96187.88;5035976;28;20045;-78
2021/12/03 03:55:10;;;;;;;12.07;8.05;;;;;;;2.88;77.53;96182.72;5035909;28;20061;-76
2021/12/03 03:57:39;;;;;;;11.95;7.55;;;;;;;2.88;77.49;96187.88;5035826;28;20057;-75
2021/12/03 04:00:10;;;;;;;10.93;8.68;;;;;;;2.89;77.28;96192.09;5035727;28;20042;-76
2021/12/03 04:02:38;;;;;;;9.48;7.85;;;;;;;2.88;77.34;96187.88;5035661;28;20053;-75
2021/12/03 04:05:08;;;;;;;10.98;7.28;;;;;;;2.88;77.42;96187.88;5035818;28;20049;-76
2021/12/03 04:07:36;;;;;;;10.07;7.43;;;;;;;2.87;76.85;96191.44;5035765;28;20081;-77
2021/12/03 04:10:04;;;;;;;14.38;8.13;;;;;;;2.87;76.99;96191.44;5036033;28;20045;-80
2021/12/03 04:12:32;;;;;;;10.85;7.75;;;;;;;2.88;77.01;96195.63;5035846;28;20049;-76
2021/12/03 04:14:59;;;;;;;8.73;7.18;;;;;;;2.88;77.55;96195.63;5035870;28;20083;-76
2021/12/03 04:17:27;;;;;;;10.02;8.07;;;;;;;2.88;77.22;96198.19;5035458;28;20053;-77
2021/12/03 04:19:55;;;;;;;12.13;8.32;;;;;;;2.88;77.56;96207.69;5035936;28;20041;-76
2021/12/03 04:22:25;;;;;;;9.05;7.63;;;;;;;2.89;77.52;96204.97;5035861;28;20049;-78
2021/12/03 04:24:54;;;;;;;12.40;6.97;;;;;;;2.89;77.19;96207.56;5036113;28;20060;-77
2021/12/03 04:27:28;;;;;;;8.82;6.97;;;;;;;2.88;76.89;96213.66;5035816;28;20131;-79
2021/12/03 04:29:56;;;;;;;9.63;6.93;;;;;;;2.87;77.20;96226.69;5034914;28;20046;-76
2021/12/03 04:32:25;;;;;;;9.68;7.13;;;;;;;2.87;77.20;96231.84;5035613;28;20053;-76
2021/12/03 04:34:53;;;;;;;8.32;6.65;;;;;;;2.88;77.34;96238.59;5035730;28;20049;-77
2021/12/03 04:37:21;;;;;;;10.05;7.47;;;;;;;2.88;77.57;96236.84;5034803;28;20054;-76
2021/12/03 04:39:51;;;;;;;12.18;8.10;;;;;;;2.88;77.71;96244.56;5034999;28;20071;-75
2021/12/03 04:42:19;;;;;;;9.95;7.20;;;;;;;2.88;77.54;96241.97;5034989;28;20049;-75
2021/12/03 04:44:47;;;;;;;9.55;7.30;;;;;;;2.87;77.45;96242.94;5034885;28;20495;-76
2021/12/03 04:47:14;;;;;;;8.82;7.47;;;;;;;2.87;77.10;96249.88;5034696;28;20057;-76
2021/12/03 04:49:42;;;;;;;9.85;7.13;;;;;;;2.85;77.31;96254.34;5034701;28;20450;-76
2021/12/03 04:52:09;;;;;;;8.35;6.43;;;;;;;2.85;77.18;96256.94;5034751;28;20462;-76
2021/12/03 04:54:37;;;;;;;8.82;6.78;;;;;;;2.82;76.95;96260.59;5034640;28;20065;-76
2021/12/03 04:57:07;;;;;;;7.53;6.28;;;;;;;2.81;75.70;96269.28;5034589;28;20053;-77
2021/12/03 04:59:34;;;;;;;8.95;5.68;;;;;;;2.80;76.43;96270.25;5034705;28;20125;-78
2021/12/03 05:02:02;;;;;;;8.00;6.25;;;;;;;2.76;76.67;96266.31;5034690;28;20049;-76
2021/12/03 05:04:36;;;;;;;7.57;6.38;;;;;;;2.75;76.42;96274.97;5034612;28;20053;-77
2021/12/03 05:07:16;;;;;;;8.05;5.88;;;;;;;2.74;76.59;96275.94;5034591;28;20053;-76
2021/12/03 05:09:44;;;;;;;7.25;5.85;;;;;;;2.72;76.20;96283.00;5034240;28;20046;-75
2021/12/03 05:12:12;;;;;;;7.20;5.45;;;;;;;2.72;76.32;96285.56;5034562;28;20049;-77
2021/12/03 05:14:40;;;;;;;8.80;7.15;;;;;;;2.72;76.52;96283.00;5034435;28;20049;-77
2021/12/03 05:17:08;;;;;;;7.82;6.70;;;;;;;2.74;76.67;96290.59;5034112;28;20049;-77
2021/12/03 05:19:35;;;;;;;9.65;6.03;;;;;;;2.71;75.67;96289.09;5034148;28;20041;-76
2021/12/03 05:22:07;;;;;;;8.05;5.90;;;;;;;2.64;75.74;96288.03;5034544;28;20053;-76
2021/12/03 05:24:34;;;;;;;7.07;6.00;;;;;;;2.64;76.28;96298.34;5034399;28;20052;-78
2021/12/03 05:27:02;;;;;;;7.25;5.93;;;;;;;2.62;74.59;96300.25;5034285;28;20060;-77
2021/12/03 05:29:30;;;;;;;8.15;6.32;;;;;;;2.53;75.51;96301.88;5033824;28;20557;-75
2021/12/03 05:31:58;;;;;;;18.58;11.23;;;;;;;2.55;76.64;96307.72;5034106;28;20080;-76
2021/12/03 05:34:28;;;;;;;83.53;44.20;;;;;;;2.59;76.94;96310.81;5034350;28;20042;-77
2021/12/03 05:36:55;;;;;;;25.70;14.57;;;;;;;2.62;76.43;96310.53;5033520;28;20057;-76
2021/12/03 05:39:23;;;;;;;13.85;9.77;;;;;;;2.66;76.71;96317.03;5033945;28;20045;-77
2021/12/03 05:41:50;;;;;;;11.70;8.23;;;;;;;2.69;76.68;96316.78;5033862;28;20056;-78
2021/12/03 05:44:18;;;;;;;14.68;8.60;;;;;;;2.68;76.09;96326.25;5034089;28;20111;-76
2021/12/03 05:46:47;;;;;;;9.23;7.20;;;;;;;2.70;76.67;96333.84;5033827;28;20057;-79
2021/12/03 05:49:15;;;;;;;10.77;7.25;;;;;;;2.72;77.13;96331.94;5034461;28;20050;-76
2021/12/03 05:51:43;;;;;;;11.90;8.32;;;;;;;2.74;77.26;96332.63;5034190;28;20045;-77
2021/12/03 05:54:11;;;;;;;9.52;7.38;;;;;;;2.74;75.83;96339.53;5034030;28;20053;-76
2021/12/03 05:56:38;;;;;;;10.48;7.25;;;;;;;2.70;76.09;96331.25;5033778;28;20052;-76
2021/12/03 05:59:06;;;;;;;7.85;7.03;;;;;;;2.71;76.45;96334.66;5033809;28;20053;-76
2021/12/03 06:01:33;;;;;;;8.98;6.72;;;;;;;2.69;76.10;96339.97;5033814;28;20057;-81
2021/12/03 06:04:02;;;;;;;8.40;6.90;;;;;;;2.66;75.90;96337.63;5033499;28;20088;-78
2021/12/03 06:06:33;;;;;;;9.05;6.60;;;;;;;2.66;76.00;96332.50;5033638;28;20507;-76
2021/12/03 06:09:00;;;;;;;8.07;6.15;;;;;;;2.66;75.13;96332.50;5033563;28;20061;-77
2021/12/03 06:11:28;;;;;;;8.10;5.93;;;;;;;2.65;75.42;96343.75;5025111;28;20050;-77
2021/12/03 06:13:56;;;;;;;9.07;6.55;;;;;;;2.65;75.71;96349.72;5014028;28;20046;-78
2021/12/03 06:16:23;;;;;;;6.97;6.07;;;;;;;2.66;75.85;96347.94;5031877;28;20414;-76
2021/12/03 06:18:51;;;;;;;8.10;6.45;;;;;;;2.66;76.04;96350.50;5028999;28;20045;-76
2021/12/03 06:21:20;;;;;;;8.05;6.38;;;;;;;2.65;75.54;96361.78;5013865;28;20049;-78
2021/12/03 06:23:47;;;;;;;9.40;6.85;;;;;;;2.64;75.57;96358.38;5013768;28;20049;-78
2021/12/03 06:26:15;;;;;;;9.90;6.88;;;;;;;2.60;74.58;96358.78;5013716;28;20054;-76
2021/12/03 06:28:43;;;;;;;9.93;7.47;;;;;;;2.57;75.38;96364.22;5028094;28;20049;-77
2021/12/03 06:31:10;;;;;;;11.60;7.00;;;;;;;2.60;75.66;96369.94;5033269;28;20049;-78
2021/12/03 06:33:38;;;;;;;11.77;7.60;;;;;;;2.61;75.55;96368.16;5033445;28;20072;-76
2021/12/03 06:36:06;;;;;;;11.05;8.25;;;;;;;2.58;75.39;96366.69;5032807;28;20539;-75
2021/12/03 06:38:38;;;;;;;11.38;8.43;;;;;;;2.57;75.32;96374.53;5032972;28;20503;-75
2021/12/03 06:41:06;;;;;;;10.82;8.65;;;;;;;2.56;75.25;96383.19;5015285;28;20053;-75
2021/12/03 06:43:35;;;;;;;9.65;7.32;;;;;;;2.52;73.97;96392.97;5012228;28;20503;-75
2021/12/03 06:46:02;;;;;;;8.38;6.63;;;;;;;2.45;73.10;96397.03;5026229;28;20056;-75
2021/12/03 06:48:31;;;;;;;10.80;7.28;;;;;;;2.43;74.25;96398.94;5022810;28;20049;-75
2021/12/03 06:50:59;;;;;;;9.60;7.35;;;;;;;2.43;74.64;96404.88;5012268;28;20470;-74
2021/12/03 06:53:34;;;;;;;10.95;7.95;;;;;;;2.41;73.85;96404.22;5011611;28;20065;-74
2021/12/03 06:56:08;;;;;;;10.73;8.57;;;;;;;2.40;74.44;96410.28;5012176;28;20053;-74
2021/12/03 06:58:36;;;;;;;9.80;7.72;;;;;;;2.41;75.21;96411.94;5013549;28;20451;-74
2021/12/03 07:01:04;;;;;;;11.50;8.30;;;;;;;2.42;74.91;96413.53;5022606;28;20049;-74
2021/12/03 07:03:36;;;;;;;9.60;6.80;;;;;;;2.36;73.47;96411.53;5031966;28;20550;-74
2021/12/03 07:06:04;;;;;;;10.45;7.90;;;;;;;2.33;74.22;96413.56;5031448;28;20050;-74
2021/12/03 07:08:31;;;;;;;10.82;8.02;;;;;;;2.30;74.37;96418.97;5031927;28;20053;-74
2021/12/03 07:10:59;;;;;;;10.57;7.50;;;;;;;2.26;74.13;96428.72;5031930;28;20392;-75
2021/12/03 07:13:30;;;;;;;12.13;7.63;;;;;;;2.24;75.01;96415.97;5032038;28;20072;-75
2021/12/03 07:15:58;;;;;;;11.03;8.17;;;;;;;2.25;74.68;96421.94;5033115;28;20438;-75
2021/12/03 07:18:26;;;;;;;9.82;7.57;;;;;;;2.24;74.84;96435.75;5032115;28;20069;-75
2021/12/03 07:20:54;;;;;;;10.75;8.13;;;;;;;2.25;75.22;96432.22;5031893;28;20049;-77
2021/12/03 07:23:21;;;;;;;9.45;7.72;;;;;;;2.26;75.54;96439.03;5031653;28;20667;-76
2021/12/03 07:25:49;;;;;;;10.95;8.07;;;;;;;2.27;75.39;96432.91;5032193;28;20083;-78
2021/12/03 07:28:18;;;;;;;9.45;7.03;;;;;;;2.29;74.61;96440.50;5032045;28;20049;-76
2021/12/03 07:30:47;;;;;;;10.65;8.35;;;;;;;2.29;75.26;96436.16;5031561;28;20054;-76
2021/12/03 07:33:17;;;;;;;10.98;7.47;;;;;;;2.30;75.76;96442.97;5031446;28;20538;-74
2021/12/03 07:35:45;;;;;;;10.65;7.97;;;;;;;2.33;75.85;96444.44;5031330;28;20093;-75
2021/12/03 07:38:15;;;;;;;11.07;8.10;;;;;;;2.34;75.82;96452.03;5031653;28;20505;-75
2021/12/03 07:40:43;;;;;;;11.82;7.30;;;;;;;2.32;74.58;96443.63;5020876;28;20060;-77
2021/12/03 07:43:10;;;;;;;10.73;8.63;;;;;;;2.31;75.06;96447.16;5028431;28;20053;-75
2021/12/03 07:45:38;;;;;;;11.20;8.38;;;;;;;2.34;75.81;96451.22;5011629;28;20054;-76
2021/12/03 07:48:07;;;;;;;10.90;8.25;;;;;;;2.36;75.99;96451.88;5018644;28;20049;-76
2021/12/03 07:50:37;;;;;;;14.20;8.38;;;;;;;2.40;76.16;96453.25;5031494;28;20073;-76
2021/12/03 07:53:04;;;;;;;11.68;8.68;;;;;;;2.41;75.84;96458.28;5031677;28;20053;-76
2021/12/03 07:55:33;;;;;;;12.60;8.15;;;;;;;2.41;76.06;96463.41;5031477;28;20462;-75
2021/12/03 07:58:02;;;;;;;11.98;8.32;;;;;;;2.40;76.01;96466.13;5011770;28;20046;-76
2021/12/03 08:00:29;;;;;;;11.45;8.45;;;;;;;2.40;75.27;96466.13;5016738;28;20045;-76
2021/12/03 08:03:17;;;;;;;14.13;9.15;;;;;;;2.42;75.26;96475.34;5034435;28;20049;-76
2021/12/03 08:05:45;;;;;;;11.07;9.10;;;;;;;2.45;75.79;96469.94;5033633;28;20538;-74
2021/12/03 08:08:13;;;;;;;11.95;8.23;;;;;;;2.47;75.29;96473.19;5035463;28;20462;-75
2021/12/03 08:10:40;;;;;;;10.90;7.82;;;;;;;2.48;74.94;96479.94;5035281;28;20049;-76
2021/12/03 08:13:08;;;;;;;11.57;8.38;;;;;;;2.48;75.15;96479.94;5031044;28;20060;-76
2021/12/03 08:15:38;;;;;;;11.73;8.93;;;;;;;2.48;74.67;96482.53;5016147;28;20058;-76
2021/12/03 08:18:06;;;;;;;12.20;9.32;;;;;;;2.48;75.51;96479.16;5015197;28;20153;-75
2021/12/03 08:20:35;;;;;;;11.20;8.23;;;;;;;2.51;75.61;96472.91;5015212;28;20056;-76
2021/12/03 08:23:03;;;;;;;15.05;8.80;;;;;;;2.56;76.16;96473.31;5014981;28;20515;-75
2021/12/03 08:25:31;;;;;;;13.30;8.80;;;;;;;2.60;75.96;96467.78;5014965;28;20086;-75
2021/12/03 08:27:58;;;;;;;13.07;8.63;;;;;;;2.61;75.89;96468.59;5023182;28;20430;-74
2021/12/03 08:30:28;;;;;;;13.30;9.73;;;;;;;2.62;75.89;96467.63;5034789;28;20045;-75
2021/12/03 08:32:56;;;;;;;12.57;9.30;;;;;;;2.58;74.01;96474.00;5035422;28;20045;-76
2021/12/03 08:35:24;;;;;;;12.82;8.88;;;;;;;2.51;73.60;96462.59;5034938;28;20045;-75
2021/12/03 08:37:53;;;;;;;13.05;8.65;;;;;;;2.48;74.42;96474.81;5034512;28;20049;-76
2021/12/03 08:40:21;;;;;;;13.80;8.90;;;;;;;2.51;74.97;96473.72;5034172;28;20530;-75
2021/12/03 08:42:50;;;;;;;14.48;9.35;;;;;;;2.53;75.18;96476.97;5022145;28;20057;-75
2021/12/03 08:45:21;;;;;;;10.98;7.80;;;;;;;2.55;74.75;96484.56;5015066;28;20061;-75
2021/12/03 08:47:52;;;;;;;11.32;8.63;;;;;;;2.60;75.46;96490.13;5014934;28;20060;-75
2021/12/03 08:50:27;;;;;;;11.32;8.10;;;;;;;2.64;74.30;96486.34;5018309;28;20054;-75
2021/12/03 08:54:47;;;;;;;19.98;9.50;;;;;;;2.68;74.80;96480.78;5018664;28;20092;-76
2021/12/03 08:56:07;;;;;;;24.67;10.07;;;;;;;2.76;74.52;96481.88;5016084;28;20053;-76
2021/12/03 08:58:34;;;;;;;15.60;9.98;;;;;;;2.81;74.87;96485.66;5015665;28;20046;-75
2021/12/03 09:01:02;;;;;;;13.45;9.10;;;;;;;2.83;74.69;96494.06;5015175;28;20507;-77
2021/12/03 09:03:30;;;;;;;12.32;8.88;;;;;;;2.84;74.73;96493.13;5015537;28;20054;-75
2021/12/03 09:05:57;;;;;;;11.63;8.30;;;;;;;2.84;74.34;96489.72;5015046;28;20069;-75
2021/12/03 09:08:26;;;;;;;12.45;9.07;;;;;;;2.84;74.94;96500.84;5014838;28;20054;-75
2021/12/03 09:10:54;;;;;;;11.38;8.50;;;;;;;2.86;75.05;96495.53;5014484;28;20045;-74
2021/12/03 09:13:21;;;;;;;10.75;8.32;;;;;;;2.85;73.55;96484.44;5014638;28;20057;-75
2021/12/03 09:15:55;;;;;;;12.90;9.07;;;;;;;2.85;73.76;96492.16;5013619;28;20836;-75
2021/12/03 09:18:30;;;;;;;13.70;9.85;;;;;;;2.86;74.53;96503.28;5014922;28;20054;-76
2021/12/03 09:21:21;;;;;;;16.58;8.90;;;;;;;2.87;74.78;96503.16;5014324;28;20054;-76
2021/12/03 09:23:59;;;;;;;14.50;9.20;;;;;;;2.87;75.37;96494.63;5014650;28;20054;-75
2021/12/03 09:26:28;;;;;;;13.23;9.65;;;;;;;2.89;74.58;96498.69;5013754;28;20050;-75
2021/12/03 09:29:01;;;;;;;14.43;9.70;;;;;;;2.89;74.51;96503.81;5013956;28;20072;-76
2021/12/03 09:31:29;;;;;;;13.77;8.98;;;;;;;2.91;74.10;96495.13;5014184;28;20050;-75
2021/12/03 09:33:57;;;;;;;11.38;9.05;;;;;;;2.89;74.86;96488.38;5018797;28;20096;-75
2021/12/03 09:36:25;;;;;;;10.95;8.10;;;;;;;2.91;73.93;96484.84;5033626;28;20049;-76
2021/12/03 09:38:54;;;;;;;8.57;7.18;;;;;;;2.93;73.87;96488.09;5034025;28;20055;-76
2021/12/03 09:41:22;;;;;;;9.73;7.90;;;;;;;2.94;73.05;96487.97;5033974;28;20521;-74
2021/12/03 09:43:52;;;;;;;11.77;7.72;;;;;;;2.96;72.74;96490.41;5033800;28;20540;-75
2021/12/03 09:46:23;;;;;;;9.40;6.40;;;;;;;2.99;71.80;96487.53;5033049;28;20068;-76
2021/12/03 09:49:16;;;;;;;11.05;7.78;;;;;;;3.03;72.61;96481.97;5056395;22;20061;-75
2021/12/03 09:51:50;;;;;;;7.40;6.10;;;;;;;3.12;72.93;96482.09;4992893;28;20055;-75
2021/12/03 09:54:24;;;;;;;8.00;6.10;;;;;;;3.14;72.65;96480.22;4994802;28;20492;-75
2021/12/03 09:56:58;;;;;;;8.25;6.38;;;;;;;3.14;72.51;96475.84;4994525;28;20492;-76
2021/12/03 10:02:17;;;;;;;8.93;5.25;;;;;;;3.26;72.27;96474.75;4965541;28;20493;-75
2021/12/03 10:13:22;;;;;;;7.93;5.45;;;;;;;3.57;71.01;96471.97;4994357;28;20067;-75
2021/12/03 10:16:01;;;;;;;8.98;5.95;;;;;;;3.62;70.42;96474.91;4994304;28;20085;-75
2021/12/03 10:18:45;;;;;;;6.45;5.70;;;;;;;3.70;68.24;96469.88;4994165;28;20479;-75
2021/12/03 10:24:30;;;;;;;7.15;4.97;;;;;;;3.84;69.81;96466.00;4994166;28;20053;-75
2021/12/03 10:30:12;;;;;;;5.38;4.88;;;;;;;4.03;68.33;96452.19;4992162;28;20062;-74
2021/12/03 10:32:52;;;;;;;4.88;4.28;;;;;;;4.11;69.19;96452.28;4993628;28;20054;-75
2021/12/03 10:35:37;;;;;;;7.05;4.63;;;;;;;4.19;67.79;96461.06;4993889;28;20125;-74
2021/12/03 10:44:04;;;;;;;4.97;3.85;;;;;;;4.51;66.21;96456.25;4999590;28;20050;-74
2021/12/03 10:47:00;;;;;;;4.18;3.50;;;;;;;4.60;66.77;96456.31;5012510;28;20057;-74
2021/12/03 10:49:53;;;;;;;3.08;2.75;;;;;;;4.59;66.57;96446.94;5012669;28;20057;-74
2021/12/03 10:52:27;;;;;;;3.80;2.95;;;;;;;4.64;66.53;96449.91;5013191;28;20050;-74
2021/12/03 10:55:28;;;;;;;4.22;3.75;;;;;;;4.72;65.12;96452.53;5013113;28;20512;-74
2021/12/03 11:34:58;;;;;;;2.92;2.65;;;;;;;15.69;35.98;96419.50;5012080;28;20046;-76
2021/12/03 11:37:50;;;;;;;2.78;2.58;;;;;;;16.72;37.16;96413.38;5011862;28;20058;-76
2021/12/03 11:41:11;;;;;;;3.83;2.58;;;;;;;17.35;32.97;96405.97;5016101;28;20064;-74
2021/12/03 12:43:09;;;;;;;3.50;2.85;;;;;;;8.62;48.98;96349.28;5036195;28;20056;-74
2021/12/03 13:25:34;;;;;;;5.63;2.78;;;;;;;6.14;52.96;96308.06;5089742;28;20048;-75
2021/12/03 13:57:03;;;;;;;3.63;2.67;;;;;;;5.15;57.11;96300.97;5089391;28;20455;-75
2021/12/03 14:02:44;;;;;;;4.65;2.45;;;;;;;5.17;55.06;96296.44;5045629;28;20045;-74
2021/12/03 14:37:41;;;;;;;5.90;2.97;;;;;;;4.38;59.88;96290.50;5130285;28;20055;-74
2021/12/03 14:40:17;;;;;;;3.00;2.72;;;;;;;4.25;57.97;96290.91;5133386;27;20039;-74
2021/12/03 14:43:02;;;;;;;7.43;3.00;;;;;;;4.18;60.44;96294.25;5148816;27;20062;-74
2021/12/03 14:51:28;;;;;;;4.07;2.92;;;;;;;3.94;58.74;96290.50;5139621;27;20679;-74
2021/12/03 14:57:14;;;;;;;3.50;2.80;;;;;;;3.83;59.19;96306.19;5131675;27;20415;-74
2021/12/03 14:59:51;;;;;;;3.30;2.33;;;;;;;3.70;60.06;96289.28;5150219;27;20786;-74
2021/12/03 15:02:36;;;;;;;4.68;2.85;;;;;;;3.65;59.70;96299.25;5150365;27;20043;-74
2021/12/03 15:05:16;;;;;;;3.47;2.35;;;;;;;3.64;62.28;96289.88;5149880;27;20141;-74
2021/12/03 15:07:45;;;;;;;3.50;2.30;;;;;;;3.61;61.04;96282.44;5150203;27;20500;-74
2021/12/03 15:10:20;;;;;;;4.30;2.40;;;;;;;3.57;59.73;96275.94;5158719;27;20074;-74
2021/12/03 15:13:14;;;;;;;6.00;2.05;;;;;;;3.50;60.87;96280.88;5150172;27;20062;-75
2021/12/03 15:21:35;;;;;;;7.50;2.35;;;;;;;3.36;59.66;96277.97;5144509;27;20040;-74
2021/12/03 15:24:36;;;;;;;4.07;2.50;;;;;;;3.32;60.12;96271.47;5136102;27;20047;-74
2021/12/03 15:27:18;;;;;;;3.75;2.42;;;;;;;3.29;60.00;96268.22;5135937;27;20047;-75
2021/12/03 15:32:40;;;;;;;4.57;2.85;;;;;;;3.25;61.18;96272.06;5135795;27;20054;-75
2021/12/03 15:35:13;;;;;;;;;;;;;;;3.26;60.55;96284.00;5136353;27;20047;-75
2021/12/03 15:38:05;;;;;;;;;;;;;;;3.28;61.82;96278.72;5135000;27;20453;-74
2021/12/03 15:40:55;;;;;;;4.30;2.35;;;;;;;3.26;61.32;96278.03;5115403;28;19919;-74
2021/12/03 15:52:20;;;;;;;5.45;3.33;;;;;;;3.35;65.82;96274.59;5100354;22;20056;-77
2021/12/03 15:57:42;;;;;;;4.20;2.83;;;;;;;3.34;64.75;96270.38;5073556;28;20052;-77
2021/12/03 16:08:29;;;;;;;7.00;3.15;;;;;;;3.26;66.17;96249.69;5072714;28;20052;-76
2021/12/03 16:11:07;;;;;;;3.55;2.78;;;;;;;3.23;64.89;96245.59;5095882;28;20055;-82
2021/12/03 16:13:47;;;;;;;4.13;2.83;;;;;;;3.18;65.47;96240.09;5098673;28;20048;-78
2021/12/03 16:16:47;;;;;;;4.65;3.25;;;;;;;3.12;63.39;96250.97;5095944;28;20048;-80
2021/12/03 16:19:22;;;;;;;4.88;3.45;;;;;;;3.11;64.18;96253.69;5097673;28;20052;-80